Time;durP1;ratioP1;P1;durP2;ratioP2;P2;SDS_P1;SDS_P2;PMS_P1;PMS_P2;Temp;Humidity;BMP_temperature;BMP_pressure;BME280_temperature;BME280_humidity;BME280_pressure;Samples;Min_cycle;Max_cycle;Signal;HPM_P1;HPM_P2
2021/06/29 00:02:32;;;;;;;46.85;9.70;;;;;;;;;;5147099;27;20401;-78
2021/06/29 00:05:24;;;;;;;47.35;9.15;;;;;;;;;;5108645;27;20164;-78
2021/06/29 00:08:16;;;;;;;47.97;10.00;;;;;;;;;;5119719;27;20398;-78
2021/06/29 00:11:07;;;;;;;45.40;9.65;;;;;;;;;;5108396;27;20559;-78
2021/06/29 00:14:03;;;;;;;50.80;9.73;;;;;;;;;;5191623;27;20473;-78
2021/06/29 00:16:58;;;;;;;49.45;9.95;;;;;;;;;;5149462;27;20316;-78
2021/06/29 00:19:53;;;;;;;50.60;11.38;;;;;;;;;;5191466;27;20386;-78
2021/06/29 00:22:54;;;;;;;47.53;10.75;;;;;;;;;;5143848;27;20888;-77
2021/06/29 00:25:48;;;;;;;44.20;11.05;;;;;;;;;;5117239;27;20497;-78
2021/06/29 00:28:43;;;;;;;52.50;11.27;;;;;;;;;;5131529;27;20478;-78
2021/06/29 00:31:46;;;;;;;42.35;10.25;;;;;;;;;;5131142;27;20937;-79
2021/06/29 00:34:41;;;;;;;44.33;10.65;;;;;;;;;;5191708;27;20402;-78
2021/06/29 00:37:37;;;;;;;60.20;12.40;;;;;;;;;;5149726;27;20138;-78
2021/06/29 00:40:32;;;;;;;56.60;11.02;;;;;;;;;;5191547;27;20477;-78
2021/06/29 00:43:33;;;;;;;52.42;10.32;;;;;;;;;;5143676;27;20437;-77
2021/06/29 00:46:39;;;;;;;45.55;10.57;;;;;;;;;;5147126;27;20394;-78
2021/06/29 00:49:35;;;;;;;39.13;10.73;;;;;;;;;;5191546;27;20453;-79
2021/06/29 00:52:29;;;;;;;61.83;11.23;;;;;;;;;;5119677;27;20398;-79
2021/06/29 00:55:25;;;;;;;54.38;11.35;;;;;;;;;;5191518;27;20477;-78
2021/06/29 00:58:20;;;;;;;50.42;10.63;;;;;;;;;;5149596;27;20841;-78
2021/06/29 01:01:15;;;;;;;48.03;10.40;;;;;;;;;;5191480;27;20880;-78
2021/06/29 01:04:10;;;;;;;47.28;10.65;;;;;;;;;;5149781;27;20110;-79
2021/06/29 01:07:19;;;;;;;59.05;10.38;;;;;;;;;;5147353;27;20409;-80
2021/06/29 01:10:15;;;;;;;48.28;10.60;;;;;;;;;;5191398;27;20422;-78
2021/06/29 01:13:11;;;;;;;41.72;9.65;;;;;;;;;;5191587;27;20422;-78
2021/06/29 01:16:07;;;;;;;44.00;9.88;;;;;;;;;;5149756;27;20164;-78
2021/06/29 01:19:03;;;;;;;45.85;9.38;;;;;;;;;;5191546;27;20390;-78
2021/06/29 01:22:13;;;;;;;47.50;10.98;;;;;;;;;;5147358;27;20520;-78
2021/06/29 01:25:10;;;;;;;45.88;10.32;;;;;;;;;;5117624;27;20430;-78
2021/06/29 01:31:30;;;;;;;52.08;10.02;;;;;;;;;;5126496;27;20406;-78
2021/06/29 01:34:26;;;;;;;44.03;11.20;;;;;;;;;;5191564;27;20382;-78
2021/06/29 01:37:22;;;;;;;55.20;10.40;;;;;;;;;;5149747;27;20204;-77
2021/06/29 01:40:33;;;;;;;47.78;9.77;;;;;;;;;;5147279;27;20394;-78
2021/06/29 01:43:31;;;;;;;44.33;9.93;;;;;;;;;;5117578;27;20485;-79
2021/06/29 01:46:31;;;;;;;44.65;9.82;;;;;;;;;;5112635;27;20489;-78
2021/06/29 01:49:27;;;;;;;53.92;9.57;;;;;;;;;;5191722;27;20481;-78
2021/06/29 01:52:30;;;;;;;53.45;9.65;;;;;;;;;;5131255;27;20887;-78
2021/06/29 01:55:26;;;;;;;50.53;8.80;;;;;;;;;;5191621;27;20429;-78
2021/06/29 01:58:34;;;;;;;46.63;8.27;;;;;;;;;;5147224;27;20433;-78
2021/06/29 02:01:31;;;;;;;41.45;9.23;;;;;;;;;;5112404;27;20485;-78
2021/06/29 02:04:26;;;;;;;55.85;10.65;;;;;;;;;;5191973;27;20394;-78
2021/06/29 02:07:01;;;;;;;53.50;10.85;;;;;;;;;;4481890;27;19338356;-78
2021/06/29 02:09:57;;;;;;;53.45;10.30;;;;;;;;;;5191322;27;20382;-78
2021/06/29 02:12:58;;;;;;;39.80;8.70;;;;;;;;;;5143644;27;20450;-79
2021/06/29 02:16:08;;;;;;;49.58;9.45;;;;;;;;;;5147417;27;20405;-78
2021/06/29 02:19:03;;;;;;;45.92;8.90;;;;;;;;;;5191499;27;20989;-79
2021/06/29 02:22:06;;;;;;;44.75;10.90;;;;;;;;;;5122983;27;20128;-79
2021/06/29 02:25:14;;;;;;;44.53;10.48;;;;;;;;;;5147172;27;20389;-78
2021/06/29 02:28:23;;;;;;;39.85;10.30;;;;;;;;;;5085570;28;20975;-78
2021/06/29 02:31:19;;;;;;;44.92;10.20;;;;;;;;;;5191592;27;20394;-79
2021/06/29 02:34:20;;;;;;;51.72;10.68;;;;;;;;;;5143847;27;20405;-78
2021/06/29 02:37:15;;;;;;;36.53;9.80;;;;;;;;;;5191612;27;20480;-78
2021/06/29 02:40:10;;;;;;;42.85;9.55;;;;;;;;;;5149570;27;20570;-78
2021/06/29 02:43:05;;;;;;;50.92;9.93;;;;;;;;;;5191581;27;20393;-78
2021/06/29 02:46:14;;;;;;;38.33;9.80;;;;;;;;;;5126378;27;20333;-78
2021/06/29 02:49:09;;;;;;;45.28;10.15;;;;;;;;;;5191357;27;20896;-79
2021/06/29 02:52:06;;;;;;;52.72;10.77;;;;;;;;;;5191456;27;20745;-78
2021/06/29 02:55:01;;;;;;;41.97;10.70;;;;;;;;;;5191582;27;20378;-79
2021/06/29 02:57:53;;;;;;;37.25;8.55;;;;;;;;;;5119623;27;20395;-79
2021/06/29 03:00:45;;;;;;;52.95;10.05;;;;;;;;;;5140330;27;20372;-79
2021/06/29 03:03:40;;;;;;;60.08;10.65;;;;;;;;;;5191529;27;20397;-79
2021/06/29 03:06:47;;;;;;;55.47;10.45;;;;;;;;;;5126466;27;20342;-78
2021/06/29 03:09:38;;;;;;;39.00;9.35;;;;;;;;;;5090452;27;20770;-78
2021/06/29 03:12:34;;;;;;;43.85;10.00;;;;;;;;;;5149684;27;20122;-78
2021/06/29 03:15:28;;;;;;;46.63;8.75;;;;;;;;;;5191546;27;20469;-78
2021/06/29 03:18:39;;;;;;;52.67;10.02;;;;;;;;;;5147509;27;20410;-79
2021/06/29 03:21:40;;;;;;;38.75;9.98;;;;;;;;;;5143715;27;20402;-79
2021/06/29 03:24:16;;;;;;;51.67;9.20;;;;;;;;;;4399927;27;20894114;-79
2021/06/29 03:27:12;;;;;;;60.92;17.17;;;;;;;;;;5171138;27;20391;-80
2021/06/29 03:30:13;;;;;;;40.17;10.80;;;;;;;;;;5191346;27;20417;-78
2021/06/29 03:32:49;;;;;;;46.75;10.05;;;;;;;;;;4506997;27;18660370;-80
2021/06/29 03:35:45;;;;;;;47.22;11.10;;;;;;;;;;5191473;27;20394;-79
2021/06/29 03:38:49;;;;;;;50.40;10.02;;;;;;;;;;5131157;27;20763;-81
2021/06/29 03:41:45;;;;;;;51.78;10.60;;;;;;;;;;5191699;27;20390;-78
2021/06/29 03:44:40;;;;;;;42.25;9.38;;;;;;;;;;5191287;27;20473;-78
2021/06/29 03:47:35;;;;;;;55.40;10.27;;;;;;;;;;5149805;27;20363;-78
2021/06/29 03:50:30;;;;;;;45.15;9.70;;;;;;;;;;5191508;27;20536;-79
2021/06/29 03:53:28;;;;;;;54.53;10.90;;;;;;;;;;5113067;27;20430;-79
2021/06/29 03:56:27;;;;;;;50.78;10.27;;;;;;;;;;5191869;27;20852;-78
2021/06/29 03:59:19;;;;;;;44.92;10.38;;;;;;;;;;5119990;27;20406;-79
2021/06/29 04:02:15;;;;;;;51.13;9.77;;;;;;;;;;5191631;27;20382;-79
2021/06/29 04:05:12;;;;;;;37.90;9.52;;;;;;;;;;5191739;27;20378;-79
2021/06/29 04:08:08;;;;;;;42.58;10.88;;;;;;;;;;5191704;27;20394;-78
2021/06/29 04:11:03;;;;;;;83.78;12.73;;;;;;;;;;5149989;27;20155;-79
2021/06/29 04:13:59;;;;;;;57.75;12.57;;;;;;;;;;5191861;27;20390;-80
2021/06/29 04:16:54;;;;;;;52.45;12.07;;;;;;;;;;5192091;27;20947;-78
2021/06/29 04:19:52;;;;;;;53.83;10.55;;;;;;;;;;5104045;27;20126;-79
2021/06/29 04:22:58;;;;;;;54.30;12.50;;;;;;;;;;5131386;27;20461;-79
2021/06/29 04:25:54;;;;;;;47.03;12.63;;;;;;;;;;5175503;27;20400;-78
2021/06/29 04:29:01;;;;;;;59.45;12.57;;;;;;;;;;5147538;27;20757;-78
2021/06/29 04:32:10;;;;;;;62.28;13.98;;;;;;;;;;5126521;27;20330;-78
2021/06/29 04:35:06;;;;;;;71.40;19.10;;;;;;;;;;5191793;27;20939;-79
2021/06/29 04:38:03;;;;;;;59.65;17.13;;;;;;;;;;5112740;27;20433;-80
2021/06/29 04:40:59;;;;;;;78.38;25.42;;;;;;;;;;5191690;27;20417;-78
2021/06/29 04:43:54;;;;;;;76.28;24.55;;;;;;;;;;5149537;27;20131;-79
2021/06/29 04:46:50;;;;;;;86.00;27.90;;;;;;;;;;5191766;27;20430;-78
2021/06/29 04:49:46;;;;;;;78.50;26.85;;;;;;;;;;5191293;27;20394;-78
2021/06/29 04:52:48;;;;;;;83.30;29.63;;;;;;;;;;5143662;27;20919;-78
2021/06/29 04:55:48;;;;;;;91.85;28.42;;;;;;;;;;5143979;27;20417;-79
2021/06/29 04:58:52;;;;;;;91.45;24.75;;;;;;;;;;5112595;27;20403;-79
2021/06/29 05:01:47;;;;;;;65.97;18.60;;;;;;;;;;5191482;27;20398;-79
2021/06/29 05:04:42;;;;;;;61.28;16.10;;;;;;;;;;5149787;27;20142;-79
2021/06/29 05:07:38;;;;;;;65.05;19.75;;;;;;;;;;5191517;27;20892;-77
2021/06/29 05:10:41;;;;;;;81.22;21.48;;;;;;;;;;5130640;27;20432;-77
2021/06/29 05:13:37;;;;;;;66.85;23.70;;;;;;;;;;5191463;27;20382;-77
2021/06/29 05:16:29;;;;;;;63.53;23.20;;;;;;;;;;5119740;27;20406;-77
2021/06/29 05:19:26;;;;;;;70.72;27.30;;;;;;;;;;5103793;27;20378;-77
2021/06/29 05:22:24;;;;;;;78.00;30.90;;;;;;;;;;5103932;27;20370;-78
2021/06/29 05:25:32;;;;;;;76.50;24.55;;;;;;;;;;5128862;27;20402;-78
2021/06/29 05:28:28;;;;;;;72.63;19.67;;;;;;;;;;5191548;27;20513;-78
2021/06/29 05:31:23;;;;;;;59.20;20.08;;;;;;;;;;5191946;27;20460;-70
2021/06/29 05:34:18;;;;;;;76.32;21.10;;;;;;;;;;5191728;27;20413;-68
2021/06/29 05:37:12;;;;;;;75.68;21.38;;;;;;;;;;5106844;27;20565;-69
2021/06/29 05:40:22;;;;;;;68.30;17.00;;;;;;;;;;5126333;27;20358;-68
2021/06/29 05:43:17;;;;;;;49.35;13.98;;;;;;;;;;5191453;27;20382;-68
2021/06/29 05:46:13;;;;;;;48.75;12.55;;;;;;;;;;5191560;27;20390;-68
2021/06/29 05:49:11;;;;;;;62.15;12.05;;;;;;;;;;5191371;27;20389;-68
2021/06/29 05:52:15;;;;;;;48.92;11.95;;;;;;;;;;5130561;27;20403;-68
2021/06/29 05:55:10;;;;;;;67.00;13.02;;;;;;;;;;5191309;27;20937;-68
2021/06/29 05:58:05;;;;;;;66.82;12.57;;;;;;;;;;5191307;27;20782;-69
2021/06/29 06:01:00;;;;;;;61.17;13.27;;;;;;;;;;5149437;27;20344;-68
2021/06/29 06:03:56;;;;;;;44.25;13.00;;;;;;;;;;5191561;27;20390;-68
2021/06/29 06:06:52;;;;;;;61.88;12.02;;;;;;;;;;5191572;27;20465;-69
2021/06/29 06:09:47;;;;;;;42.28;11.30;;;;;;;;;;5191585;27;20390;-69
2021/06/29 06:12:43;;;;;;;48.08;12.02;;;;;;;;;;5191385;27;20426;-69
2021/06/29 06:15:53;;;;;;;50.40;11.68;;;;;;;;;;5126537;27;20334;-70
2021/06/29 06:18:48;;;;;;;55.67;11.38;;;;;;;;;;5117288;27;20749;-69
2021/06/29 06:21:43;;;;;;;66.85;12.55;;;;;;;;;;5191574;27;20465;-70
2021/06/29 06:24:38;;;;;;;60.22;12.60;;;;;;;;;;5097619;27;20479;-70
2021/06/29 06:27:30;;;;;;;56.45;12.52;;;;;;;;;;5119302;27;20430;-70
2021/06/29 06:30:22;;;;;;;63.95;14.63;;;;;;;;;;5107892;27;20370;-71
2021/06/29 06:33:30;;;;;;;56.80;13.35;;;;;;;;;;5147064;27;20402;-70
2021/06/29 06:36:26;;;;;;;54.30;13.55;;;;;;;;;;5191620;27;20382;-70
2021/06/29 06:39:21;;;;;;;59.25;12.88;;;;;;;;;;5086846;28;20400;-70
2021/06/29 06:42:16;;;;;;;59.72;14.95;;;;;;;;;;5149735;27;20305;-70
2021/06/29 06:45:22;;;;;;;64.68;13.07;;;;;;;;;;5143881;27;20405;-70
2021/06/29 06:48:16;;;;;;;47.35;11.80;;;;;;;;;;5191440;27;20397;-70
2021/06/29 06:51:11;;;;;;;61.30;12.57;;;;;;;;;;5149703;27;20119;-70
2021/06/29 06:54:07;;;;;;;53.40;11.82;;;;;;;;;;5191807;27;20836;-70
2021/06/29 06:57:17;;;;;;;51.30;11.70;;;;;;;;;;5146822;27;20480;-70
2021/06/29 07:00:13;;;;;;;53.67;11.98;;;;;;;;;;5191560;27;20473;-70
2021/06/29 07:03:08;;;;;;;55.30;11.23;;;;;;;;;;5191338;27;20394;-70
2021/06/29 07:06:00;;;;;;;56.88;12.63;;;;;;;;;;5108599;27;20782;-70
2021/06/29 07:08:55;;;;;;;96.88;17.45;;;;;;;;;;5191330;27;20394;-71
2021/06/29 07:11:59;;;;;;;53.25;11.90;;;;;;;;;;5109931;27;20339;-70
2021/06/29 07:15:04;;;;;;;58.58;11.50;;;;;;;;;;5130790;27;20771;-70
2021/06/29 07:18:21;;;;;;;49.78;11.40;;;;;;;;;;5146934;27;20852;-70
2021/06/29 07:21:10;;;;;;;49.40;11.60;;;;;;;;;;5088353;27;20445;-70
2021/06/29 07:23:47;;;;;;;51.42;11.05;;;;;;;;;;5024660;28;21111;-70
2021/06/29 07:26:26;;;;;;;47.08;10.55;;;;;;;;;;5068161;28;20925;-70
2021/06/29 07:29:04;;;;;;;54.70;11.45;;;;;;;;;;5108728;27;20375;-70
2021/06/29 07:31:42;;;;;;;52.40;11.65;;;;;;;;;;5067599;28;20928;-71
2021/06/29 07:34:20;;;;;;;34.05;10.30;;;;;;;;;;5067795;28;20391;-70
2021/06/29 07:36:58;;;;;;;50.17;9.85;;;;;;;;;;5067982;28;20382;-70
2021/06/29 07:39:37;;;;;;;49.65;10.50;;;;;;;;;;5067665;28;20394;-69
2021/06/29 07:42:15;;;;;;;41.65;10.15;;;;;;;;;;5067644;28;20387;-70
2021/06/29 07:44:53;;;;;;;43.30;10.50;;;;;;;;;;5067634;28;20391;-70
2021/06/29 07:47:31;;;;;;;39.63;9.68;;;;;;;;;;5067292;28;20460;-71
2021/06/29 07:50:10;;;;;;;46.80;9.55;;;;;;;;;;5067618;28;20382;-71
2021/06/29 07:52:51;;;;;;;58.55;9.60;;;;;;;;;;5088031;28;20389;-71
2021/06/29 07:55:30;;;;;;;47.45;9.40;;;;;;;;;;5067538;28;21042;-73
2021/06/29 07:58:07;;;;;;;49.28;10.98;;;;;;;;;;5087859;28;20377;-75
2021/06/29 08:00:46;;;;;;;32.58;8.25;;;;;;;;;;5108240;27;20392;-74
2021/06/29 08:03:27;;;;;;;43.17;9.18;;;;;;;;;;5067413;28;20386;-73
2021/06/29 08:06:05;;;;;;;62.95;10.65;;;;;;;;;;5067931;28;20391;-75
2021/06/29 08:08:43;;;;;;;53.85;10.80;;;;;;;;;;5068593;27;20387;-72
2021/06/29 08:11:21;;;;;;;42.60;10.18;;;;;;;;;;5068074;28;20390;-72
2021/06/29 08:14:02;;;;;;;62.50;11.10;;;;;;;;;;5067832;28;20387;-75
2021/06/29 08:16:43;;;;;;;55.00;11.60;;;;;;;;;;5067620;28;20390;-73
2021/06/29 08:19:21;;;;;;;49.40;11.45;;;;;;;;;;5067659;28;20778;-72
2021/06/29 08:21:59;;;;;;;48.60;10.23;;;;;;;;;;5067411;28;20597;-73
2021/06/29 08:24:37;;;;;;;43.95;10.35;;;;;;;;;;5068218;28;20912;-74
2021/06/29 08:27:15;;;;;;;49.95;10.38;;;;;;;;;;5068187;28;20391;-73
2021/06/29 08:29:56;;;;;;;45.35;10.80;;;;;;;;;;5067960;28;20386;-73
2021/06/29 08:32:33;;;;;;;49.03;10.52;;;;;;;;;;5067843;28;20382;-72
2021/06/29 08:35:12;;;;;;;50.17;10.57;;;;;;;;;;5067706;28;20390;-72
2021/06/29 08:37:50;;;;;;;51.35;9.95;;;;;;;;;;5067965;28;20390;-72
2021/06/29 08:40:28;;;;;;;49.33;10.98;;;;;;;;;;5067882;28;20448;-73
2021/06/29 08:43:10;;;;;;;48.97;9.50;;;;;;;;;;5068121;28;20383;-73
2021/06/29 08:45:49;;;;;;;48.85;9.73;;;;;;;;;;5068020;28;20398;-72
2021/06/29 08:48:27;;;;;;;49.53;9.85;;;;;;;;;;5067989;28;20390;-73
2021/06/29 08:51:07;;;;;;;46.05;10.07;;;;;;;;;;5067922;28;20382;-73
2021/06/29 08:53:45;;;;;;;52.58;10.55;;;;;;;;;;5068108;28;20387;-72
2021/06/29 08:56:22;;;;;;;50.65;9.95;;;;;;;;;;5068224;28;20982;-72
2021/06/29 08:59:01;;;;;;;53.92;10.75;;;;;;;;;;5067913;28;20383;-72
2021/06/29 09:01:38;;;;;;;55.47;9.45;;;;;;;;;;5088193;28;20385;-72
2021/06/29 09:04:36;;;;;;;47.17;8.50;;;;;;;;;;5067942;28;20390;-72
2021/06/29 09:07:19;;;;;;;55.50;9.40;;;;;;;;;;5129169;27;20135;-72
2021/06/29 09:09:59;;;;;;;48.85;8.75;;;;;;;;;;5068092;28;20386;-72
2021/06/29 09:12:43;;;;;;;54.83;10.02;;;;;;;;;;5068022;28;20386;-72
2021/06/29 09:15:22;;;;;;;43.50;9.13;;;;;;;;;;5068333;28;20386;-74
2021/06/29 09:18:06;;;;;;;40.63;9.38;;;;;;;;;;5068107;28;20402;-72
2021/06/29 09:20:46;;;;;;;51.47;8.90;;;;;;;;;;5067727;28;20394;-73
2021/06/29 09:23:24;;;;;;;50.40;8.50;;;;;;;;;;5068036;28;20387;-72
2021/06/29 09:26:10;;;;;;;46.72;8.75;;;;;;;;;;5068089;28;20386;-72
2021/06/29 09:28:54;;;;;;;47.40;8.70;;;;;;;;;;5108463;27;20379;-72
2021/06/29 09:31:33;;;;;;;50.58;9.23;;;;;;;;;;5068075;28;20390;-73
2021/06/29 09:34:12;;;;;;;53.67;10.43;;;;;;;;;;5108662;27;20402;-72
2021/06/29 09:36:50;;;;;;;39.55;8.68;;;;;;;;;;5128961;27;20341;-72
2021/06/29 09:39:28;;;;;;;68.32;14.20;;;;;;;;;;5108399;27;20388;-72
2021/06/29 09:42:06;;;;;;;54.08;13.05;;;;;;;;;;5068012;28;20440;-72
2021/06/29 09:44:44;;;;;;;55.28;13.30;;;;;;;;;;5108641;27;20747;-72
2021/06/29 09:47:25;;;;;;;52.17;11.73;;;;;;;;;;5068277;28;20379;-74
2021/06/29 09:50:25;;;;;;;44.13;8.98;;;;;;;;;;5068073;28;20905;-72
2021/06/29 09:53:17;;;;;;;48.67;8.20;;;;;;;;;;5068011;28;21078;-72
2021/06/29 09:55:56;;;;;;;51.78;8.40;;;;;;;;;;5088228;28;20442;-72
2021/06/29 09:58:34;;;;;;;31.25;7.18;;;;;;;;;;5005231;28;20397;-73
2021/06/29 10:01:17;;;;;;;44.35;8.60;;;;;;;;;;5129303;27;20383;-73
2021/06/29 10:03:55;;;;;;;50.88;8.48;;;;;;;;;;5068169;28;20387;-73
2021/06/29 10:06:34;;;;;;;47.05;7.72;;;;;;;;;;5067986;28;20445;-72
2021/06/29 10:09:12;;;;;;;41.45;8.20;;;;;;;;;;5068341;28;20391;-74
2021/06/29 10:11:53;;;;;;;52.75;8.82;;;;;;;;;;5108273;27;20414;-73
2021/06/29 10:14:31;;;;;;;35.60;7.75;;;;;;;;;;5108377;27;20380;-81
2021/06/29 10:17:13;;;;;;;42.47;7.57;;;;;;;;;;5068181;28;20394;-76
2021/06/29 10:22:59;;;;;;;35.38;8.32;;;;;;;;;;5088719;27;20339;-72
2021/06/29 10:25:36;;;;;;;47.00;7.72;;;;;;;;;;5068392;28;20383;-73
2021/06/29 10:28:15;;;;;;;37.05;7.47;;;;;;;;;;5068232;28;20440;-73
2021/06/29 10:30:52;;;;;;;45.58;8.35;;;;;;;;;;5068088;28;20395;-72
2021/06/29 10:33:31;;;;;;;38.75;7.68;;;;;;;;;;5069101;27;20386;-73
2021/06/29 10:36:09;;;;;;;44.92;7.80;;;;;;;;;;5068291;28;20379;-75
2021/06/29 10:38:47;;;;;;;42.92;7.40;;;;;;;;;;5068191;28;20386;-74
2021/06/29 10:41:26;;;;;;;43.25;7.95;;;;;;;;;;5067220;28;20448;-71
2021/06/29 10:44:15;;;;;;;35.95;6.93;;;;;;;;;;5068099;28;20375;-72
2021/06/29 10:46:55;;;;;;;48.78;7.57;;;;;;;;;;5068302;28;20413;-73
2021/06/29 10:49:46;;;;;;;44.08;8.13;;;;;;;;;;5068106;28;20892;-72
2021/06/29 10:52:26;;;;;;;49.45;7.97;;;;;;;;;;5068079;28;20383;-70
2021/06/29 10:55:05;;;;;;;41.45;7.30;;;;;;;;;;5068128;28;20394;-72
2021/06/29 10:57:44;;;;;;;32.15;5.93;;;;;;;;;;5068225;28;20738;-72
2021/06/29 11:00:23;;;;;;;40.80;8.43;;;;;;;;;;5068294;28;20390;-71
2021/06/29 11:03:01;;;;;;;42.53;8.02;;;;;;;;;;5068160;28;20413;-70
2021/06/29 11:05:40;;;;;;;34.50;7.47;;;;;;;;;;5067908;28;20390;-72
2021/06/29 11:08:24;;;;;;;28.15;7.85;;;;;;;;;;5068134;28;20387;-68
2021/06/29 11:11:10;;;;;;;29.95;7.18;;;;;;;;;;5068543;28;20947;-69
2021/06/29 11:13:48;;;;;;;42.60;8.50;;;;;;;;;;5068203;28;20387;-68
2021/06/29 11:16:48;;;;;;;38.17;7.10;;;;;;;;;;5044970;27;20419;-68
2021/06/29 11:19:44;;;;;;;33.45;7.65;;;;;;;;;;5088153;27;1359070;-68
2021/06/29 11:22:59;;;;;;;45.50;8.13;;;;;;;;;;5025053;27;1344144;-69
2021/06/29 11:25:47;;;;;;;32.80;7.10;;;;;;;;;;5068177;28;20825;-68
2021/06/29 11:28:26;;;;;;;37.13;7.63;;;;;;;;;;5068349;28;20386;-69
2021/06/29 11:31:30;;;;;;;34.83;7.78;;;;;;;;;;5108968;27;20380;-68
2021/06/29 11:34:10;;;;;;;42.42;8.93;;;;;;;;;;5005321;28;20406;-68
2021/06/29 11:36:51;;;;;;;49.13;10.68;;;;;;;;;;5068206;28;20386;-69
2021/06/29 11:39:31;;;;;;;28.67;8.40;;;;;;;;;;5068003;28;20937;-68
2021/06/29 11:42:09;;;;;;;28.73;7.95;;;;;;;;;;5068070;28;20758;-68
2021/06/29 11:44:50;;;;;;;34.60;8.55;;;;;;;;;;5108864;27;20478;-69
2021/06/29 11:47:35;;;;;;;47.88;9.50;;;;;;;;;;5108810;27;20380;-69
2021/06/29 11:50:17;;;;;;;30.67;8.45;;;;;;;;;;5068275;28;20813;-69
2021/06/29 11:53:00;;;;;;;34.47;8.07;;;;;;;;;;5068375;28;20817;-68
2021/06/29 11:55:39;;;;;;;37.17;9.00;;;;;;;;;;5066969;28;21082;-68
2021/06/29 11:58:17;;;;;;;51.28;9.88;;;;;;;;;;5068052;28;20387;-68
2021/06/29 12:00:57;;;;;;;44.13;10.80;;;;;;;;;;5108904;27;20379;-68
2021/06/29 12:03:35;;;;;;;40.35;9.00;;;;;;;;;;5068368;28;20386;-68
2021/06/29 12:06:17;;;;;;;41.20;8.82;;;;;;;;;;5088771;27;20396;-68
2021/06/29 12:08:58;;;;;;;35.10;8.20;;;;;;;;;;5068172;28;20402;-69
2021/06/29 12:11:36;;;;;;;38.10;8.93;;;;;;;;;;5068492;28;20924;-69
2021/06/29 12:14:20;;;;;;;52.03;10.18;;;;;;;;;;5068438;28;20391;-69
2021/06/29 12:17:01;;;;;;;33.33;8.77;;;;;;;;;;5108659;27;20380;-68
2021/06/29 12:19:39;;;;;;;32.22;7.80;;;;;;;;;;5068267;28;20390;-68
2021/06/29 12:22:25;;;;;;;45.67;8.07;;;;;;;;;;5068355;28;20390;-69
2021/06/29 12:25:05;;;;;;;50.70;8.63;;;;;;;;;;5068353;28;20394;-68
2021/06/29 12:27:47;;;;;;;47.10;8.98;;;;;;;;;;5068300;28;20386;-68
2021/06/29 12:30:26;;;;;;;46.42;8.07;;;;;;;;;;5068314;28;20510;-69
2021/06/29 12:33:19;;;;;;;39.22;8.85;;;;;;;;;;5068127;28;20379;-68
2021/06/29 12:36:00;;;;;;;42.80;7.68;;;;;;;;;;5068023;28;20387;-68
2021/06/29 12:38:42;;;;;;;100.07;10.43;;;;;;;;;;5068283;28;20390;-68
2021/06/29 12:41:21;;;;;;;39.10;8.88;;;;;;;;;;5068367;28;20483;-68
2021/06/29 12:44:06;;;;;;;60.20;8.35;;;;;;;;;;5067983;28;20640;-69
2021/06/29 12:46:45;;;;;;;61.35;9.30;;;;;;;;;;5068377;28;20383;-68
2021/06/29 12:49:27;;;;;;;64.63;9.63;;;;;;;;;;5068008;28;20387;-68
2021/06/29 12:52:09;;;;;;;91.55;9.80;;;;;;;;;;5068121;28;20417;-69
2021/06/29 12:54:52;;;;;;;47.42;7.85;;;;;;;;;;5108773;27;20406;-68
2021/06/29 12:57:29;;;;;;;55.58;8.93;;;;;;;;;;5069048;27;20391;-69
2021/06/29 13:00:10;;;;;;;41.45;8.23;;;;;;;;;;5108730;27;20387;-69
2021/06/29 13:02:53;;;;;;;41.70;6.95;;;;;;;;;;5068360;28;20391;-68
2021/06/29 13:05:31;;;;;;;38.97;8.07;;;;;;;;;;5068333;28;20387;-68
2021/06/29 13:08:18;;;;;;;48.30;8.80;;;;;;;;;;5129191;27;20142;-68
2021/06/29 13:11:08;;;;;;;48.85;8.32;;;;;;;;;;5129331;27;20166;-68
2021/06/29 13:14:03;;;;;;;51.85;7.65;;;;;;;;;;5067995;28;20391;-69
2021/06/29 13:16:40;;;;;;;44.30;8.55;;;;;;;;;;5067993;28;20387;-74
2021/06/29 13:19:22;;;;;;;37.50;7.65;;;;;;;;;;5108512;27;20771;-72
2021/06/29 13:22:01;;;;;;;52.42;9.18;;;;;;;;;;5068025;28;20391;-69
2021/06/29 13:24:38;;;;;;;44.15;8.55;;;;;;;;;;5068391;28;20387;-72
2021/06/29 13:27:29;;;;;;;47.13;8.27;;;;;;;;;;5067736;28;20394;-73
2021/06/29 13:30:08;;;;;;;38.22;7.63;;;;;;;;;;5087261;28;20920;-71
2021/06/29 13:32:49;;;;;;;37.65;7.63;;;;;;;;;;5108256;27;20384;-72
2021/06/29 13:35:27;;;;;;;38.97;8.45;;;;;;;;;;5068061;28;20394;-72
2021/06/29 13:38:15;;;;;;;58.42;8.55;;;;;;;;;;5068056;28;20382;-73
2021/06/29 13:40:54;;;;;;;43.15;7.95;;;;;;;;;;5068133;28;20394;-72
2021/06/29 13:43:34;;;;;;;35.50;7.75;;;;;;;;;;5106292;27;1335973;-73
2021/06/29 13:46:19;;;;;;;49.35;9.35;;;;;;;;;;5068312;28;20383;-72
2021/06/29 13:48:57;;;;;;;41.35;8.75;;;;;;;;;;5068020;28;20798;-72
2021/06/29 13:51:35;;;;;;;37.72;7.72;;;;;;;;;;5068177;28;21067;-72
2021/06/29 13:54:21;;;;;;;46.20;7.97;;;;;;;;;;5068033;28;20410;-73
2021/06/29 13:56:58;;;;;;;41.80;8.07;;;;;;;;;;5067949;28;20393;-73
2021/06/29 13:59:37;;;;;;;45.83;8.20;;;;;;;;;;5067801;28;20395;-73
2021/06/29 14:02:14;;;;;;;46.78;8.52;;;;;;;;;;5068056;28;20391;-73
2021/06/29 14:04:53;;;;;;;50.70;9.15;;;;;;;;;;5068161;28;20386;-73
2021/06/29 14:07:34;;;;;;;41.40;8.07;;;;;;;;;;5068107;28;20378;-74
2021/06/29 14:10:25;;;;;;;57.95;9.25;;;;;;;;;;5068123;28;20395;-72
2021/06/29 14:13:03;;;;;;;39.72;7.35;;;;;;;;;;5067942;28;20486;-69
2021/06/29 14:15:42;;;;;;;49.65;8.07;;;;;;;;;;5099167;27;20452;-72
2021/06/29 14:18:20;;;;;;;40.85;7.32;;;;;;;;;;5170615;27;20379;-71
2021/06/29 14:20:58;;;;;;;46.30;9.07;;;;;;;;;;5068050;28;20402;-70
2021/06/29 14:23:36;;;;;;;48.45;8.48;;;;;;;;;;5068055;28;20916;-75
2021/06/29 14:26:15;;;;;;;43.70;7.70;;;;;;;;;;5067989;28;20389;-71
2021/06/29 14:28:53;;;;;;;40.65;9.45;;;;;;;;;;5067694;28;20386;-72
2021/06/29 14:31:30;;;;;;;44.90;10.15;;;;;;;;;;5067763;28;20390;-74
2021/06/29 14:34:09;;;;;;;42.78;8.45;;;;;;;;;;5067996;28;20382;-72
2021/06/29 14:36:48;;;;;;;41.78;9.02;;;;;;;;;;5106071;27;1326686;-72
2021/06/29 14:39:27;;;;;;;53.65;10.73;;;;;;;;;;5068065;28;20446;-72
2021/06/29 14:42:05;;;;;;;52.30;12.48;;;;;;;;;;5068048;28;20390;-73
2021/06/29 14:44:43;;;;;;;46.78;8.30;;;;;;;;;;5067764;28;20386;-72
2021/06/29 14:47:21;;;;;;;46.40;9.57;;;;;;;;;;5065836;28;20391;-72
2021/06/29 14:50:03;;;;;;;47.05;9.43;;;;;;;;;;5108329;27;20863;-72
2021/06/29 14:52:42;;;;;;;44.30;14.07;;;;;;;;;;5067809;28;20780;-72
2021/06/29 14:55:19;;;;;;;49.78;11.05;;;;;;;;;;5067663;28;20387;-72
2021/06/29 14:57:57;;;;;;;51.78;11.27;;;;;;;;;;5067569;28;20448;-72
2021/06/29 15:00:36;;;;;;;49.67;9.75;;;;;;;;;;5068043;28;20897;-67
2021/06/29 15:03:14;;;;;;;42.60;9.20;;;;;;;;;;5067875;28;20769;-74
2021/06/29 15:05:52;;;;;;;42.22;8.35;;;;;;;;;;5067617;28;20387;-75
2021/06/29 15:08:30;;;;;;;44.88;8.52;;;;;;;;;;5067714;28;20387;-76
2021/06/29 15:11:16;;;;;;;45.67;9.00;;;;;;;;;;4969072;28;20394;-70
2021/06/29 15:13:55;;;;;;;40.50;8.38;;;;;;;;;;5067844;28;20912;-70
2021/06/29 15:16:34;;;;;;;40.08;8.77;;;;;;;;;;5067940;28;20417;-71
2021/06/29 15:19:12;;;;;;;35.95;8.13;;;;;;;;;;5128891;27;20131;-70
2021/06/29 15:21:49;;;;;;;37.72;9.73;;;;;;;;;;5067710;28;20379;-69
2021/06/29 15:24:27;;;;;;;43.28;8.85;;;;;;;;;;5067865;28;20386;-71
2021/06/29 15:27:06;;;;;;;47.75;9.55;;;;;;;;;;5067628;28;20498;-75
2021/06/29 15:29:46;;;;;;;39.67;8.82;;;;;;;;;;5088145;27;20423;-73
2021/06/29 15:32:24;;;;;;;38.58;8.40;;;;;;;;;;5128937;27;20344;-70
2021/06/29 15:35:04;;;;;;;36.72;8.55;;;;;;;;;;5067295;28;20391;-68
2021/06/29 15:37:43;;;;;;;43.22;8.70;;;;;;;;;;5066998;28;20390;-70
2021/06/29 15:40:28;;;;;;;49.38;8.43;;;;;;;;;;5067171;28;20386;-68
2021/06/29 15:43:06;;;;;;;52.63;9.02;;;;;;;;;;5149144;27;20384;-71
2021/06/29 15:45:44;;;;;;;55.70;9.75;;;;;;;;;;5067420;28;20390;-72
2021/06/29 15:48:24;;;;;;;48.83;9.18;;;;;;;;;;5067859;28;20444;-71
2021/06/29 15:51:02;;;;;;;40.38;8.57;;;;;;;;;;5067940;28;21073;-73
2021/06/29 15:53:40;;;;;;;45.05;9.38;;;;;;;;;;5067884;28;20977;-74
2021/06/29 15:56:38;;;;;;;48.42;7.57;;;;;;;;;;5067599;28;20398;-73
2021/06/29 15:59:20;;;;;;;42.72;8.93;;;;;;;;;;5067030;28;20398;-74
2021/06/29 16:01:57;;;;;;;48.90;8.85;;;;;;;;;;5067572;28;20394;-74
2021/06/29 16:04:37;;;;;;;47.88;8.70;;;;;;;;;;5067238;28;20402;-72
2021/06/29 16:07:16;;;;;;;60.97;9.70;;;;;;;;;;5067374;28;20409;-71
2021/06/29 16:09:54;;;;;;;35.45;7.15;;;;;;;;;;5149085;27;20396;-73
2021/06/29 16:12:32;;;;;;;50.50;9.23;;;;;;;;;;5107915;27;20913;-71
2021/06/29 16:15:12;;;;;;;40.80;8.80;;;;;;;;;;5067822;28;20387;-73
2021/06/29 16:17:50;;;;;;;34.35;7.28;;;;;;;;;;5067722;28;20448;-73
2021/06/29 16:20:28;;;;;;;45.38;8.45;;;;;;;;;;5107930;27;20388;-73
2021/06/29 16:23:06;;;;;;;48.67;9.98;;;;;;;;;;5067565;28;20390;-71
2021/06/29 16:25:44;;;;;;;46.35;8.98;;;;;;;;;;5067290;28;20390;-71
2021/06/29 16:28:23;;;;;;;45.13;8.63;;;;;;;;;;5149246;27;20384;-70
2021/06/29 16:31:01;;;;;;;46.55;8.88;;;;;;;;;;5067850;28;20719;-73